createdAt,value
2022-10-13T00:01:16.037Z,102050.03
2022-10-13T00:03:47.168Z,102044.94
2022-10-13T00:06:18.946Z,102050.47
2022-10-13T00:08:46.675Z,102042.41
2022-10-13T00:11:21.515Z,102043.25
2022-10-13T00:13:50.251Z,102038.22
2022-10-13T00:16:21.991Z,102038.47
2022-10-13T00:18:51.946Z,102036.81
2022-10-13T00:21:24.338Z,102036.56
2022-10-13T00:23:55.537Z,102037.13
2022-10-13T00:26:24.977Z,102041.84
2022-10-13T00:28:53.316Z,102029.78
2022-10-13T00:31:25.597Z,102032.38
2022-10-13T00:33:55.757Z,102028.53
2022-10-13T00:36:24.258Z,102031.25
2022-10-13T00:38:52.945Z,102036.09
2022-10-13T00:41:27.266Z,102026.78
2022-10-13T00:44:26.544Z,102016.53
2022-10-13T00:46:56.251Z,102029.53
2022-10-13T00:49:26.040Z,102027.22
2022-10-13T00:51:53.217Z,102022.09
2022-10-13T00:54:23.887Z,102021.25
2022-10-13T00:56:54.813Z,102012.38
2022-10-13T00:59:29.035Z,102016.13
2022-10-13T01:01:59.411Z,102017.38
2022-10-13T01:04:33.024Z,102017.56
2022-10-13T01:07:01.401Z,102013.47
2022-10-13T01:09:35.485Z,102017.28
2022-10-13T01:12:23.765Z,102021.63
2022-10-13T01:15:16.374Z,102023.59
2022-10-13T01:17:59.682Z,102014.28
2022-10-13T01:20:53.757Z,102018.22
2022-10-13T01:24:30.846Z,102019.19
2022-10-13T01:27:43.416Z,102019.56
2022-10-13T01:30:14.871Z,102020.13
2022-10-13T01:33:06.250Z,102023.31
2022-10-13T01:36:01.076Z,102022.63
2022-10-13T01:38:49.894Z,102010.59
2022-10-13T01:41:35.798Z,102001.19
2022-10-13T01:44:05.170Z,102001.88
2022-10-13T01:46:38.163Z,101995.06
2022-10-13T01:49:14.029Z,101993.00
2022-10-13T01:51:42.623Z,101989.00
2022-10-13T01:54:09.894Z,101992.38
2022-10-13T01:56:37.056Z,101989.25
2022-10-13T01:59:13.151Z,101983.16
2022-10-13T02:02:15.987Z,101986.59
2022-10-13T02:05:40.071Z,101984.38
2022-10-13T02:08:44.626Z,101986.94
2022-10-13T02:11:18.394Z,101995.66
2022-10-13T02:13:59.744Z,101993.44
2022-10-13T02:16:34.121Z,101993.69
2022-10-13T02:19:06.806Z,101987.09
2022-10-13T02:21:37.308Z,101985.47
2022-10-13T02:24:09.334Z,101984.06
2022-10-13T02:26:39.908Z,101985.19
2022-10-13T02:29:16.275Z,101969.72
2022-10-13T02:31:46.604Z,101971.44
2022-10-13T02:34:17.084Z,101972.03
2022-10-13T02:36:44.178Z,101970.66
2022-10-13T02:39:12.065Z,101962.78
2022-10-13T02:41:39.548Z,101967.81
2022-10-13T02:44:07.459Z,101963.25
2022-10-13T02:46:35.473Z,101965.38
2022-10-13T02:49:02.579Z,101966.19
2022-10-13T02:51:29.712Z,101953.78
2022-10-13T02:53:56.938Z,101961.28
2022-10-13T02:56:24.041Z,101963.53
2022-10-13T02:58:52.040Z,101963.44
2022-10-13T03:01:21.416Z,101970.94
2022-10-13T03:03:48.480Z,101967.13
2022-10-13T03:06:15.681Z,101965.31
2022-10-13T03:08:45.211Z,101972.94
2022-10-13T03:11:12.407Z,101968.25
2022-10-13T03:13:39.551Z,101962.63
2022-10-13T03:16:09.698Z,101962.03
2022-10-13T03:18:36.899Z,101952.88
2022-10-13T03:21:07.020Z,101959.41
2022-10-13T03:23:34.440Z,101951.94
2022-10-13T03:26:02.186Z,101949.31
2022-10-13T03:28:29.408Z,101955.28
2022-10-13T03:31:06.215Z,101943.53
2022-10-13T03:33:33.320Z,101943.50
2022-10-13T03:36:02.439Z,101951.69
2022-10-13T03:38:31.329Z,101948.41
2022-10-13T03:40:58.654Z,101954.09
2022-10-13T03:43:25.806Z,101954.94
2022-10-13T03:45:58.222Z,101954.84
2022-10-13T03:48:26.095Z,101948.44
2022-10-13T03:50:53.220Z,101945.81
2022-10-13T03:53:23.015Z,101943.84
2022-10-13T03:55:56.312Z,101937.53
2022-10-13T03:58:25.563Z,101942.75
2022-10-13T04:00:53.007Z,101945.53
2022-10-13T04:03:20.676Z,101944.50
2022-10-13T04:05:48.113Z,101947.22
2022-10-13T04:08:15.489Z,101945.47
2022-10-13T04:10:45.352Z,101952.25
2022-10-13T04:13:14.814Z,101939.16
2022-10-13T04:15:41.875Z,101938.81
2022-10-13T04:18:09.098Z,101938.38
2022-10-13T04:20:39.111Z,101941.13
2022-10-13T04:23:07.432Z,101945.41
2022-10-13T04:25:39.218Z,101934.09
2022-10-13T04:28:08.322Z,101940.13
2022-10-13T04:30:35.712Z,101940.09
2022-10-13T04:33:03.457Z,101941.19
2022-10-13T04:35:30.910Z,101941.13
2022-10-13T04:38:00.608Z,101946.88
2022-10-13T04:40:30.403Z,101945.94
2022-10-13T04:42:57.482Z,101952.78
2022-10-13T04:45:27.329Z,101941.53
2022-10-13T04:47:54.438Z,101947.25
2022-10-13T04:50:21.491Z,101940.22
2022-10-13T04:52:50.682Z,101934.00
2022-10-13T04:55:17.956Z,101930.47
2022-10-13T04:57:45.029Z,101927.72
2022-10-13T05:00:12.869Z,101927.13
2022-10-13T05:02:40.041Z,101912.41
2022-10-13T05:05:08.011Z,101922.06
2022-10-13T05:07:35.832Z,101920.38
2022-10-13T05:10:03.325Z,101926.28
2022-10-13T05:12:30.786Z,101926.53
2022-10-13T05:14:58.987Z,101922.16
2022-10-13T05:17:26.243Z,101922.28
2022-10-13T05:19:53.456Z,101920.16
2022-10-13T05:22:20.910Z,101916.66
2022-10-13T05:24:48.533Z,101918.41
2022-10-13T05:27:16.173Z,101917.53
2022-10-13T05:29:43.419Z,101909.56
2022-10-13T05:32:10.543Z,101911.50
2022-10-13T05:34:37.831Z,101914.13
2022-10-13T05:37:05.134Z,101909.56
2022-10-13T05:39:32.321Z,101912.75
2022-10-13T05:42:00.514Z,101914.47
2022-10-13T05:44:27.626Z,101911.69
2022-10-13T05:46:54.895Z,101918.13
2022-10-13T05:49:22.087Z,101919.69
2022-10-13T05:51:55.091Z,101918.81
2022-10-13T05:54:31.316Z,101917.63
2022-10-13T05:57:28.488Z,101920.06
2022-10-13T06:00:00.990Z,101912.25
2022-10-13T06:02:36.629Z,101901.56
2022-10-13T06:05:06.601Z,101909.94
2022-10-13T06:07:34.057Z,101910.00
2022-10-13T06:10:02.068Z,101908.75
2022-10-13T06:12:29.205Z,101915.00
2022-10-13T06:14:56.442Z,101911.63
2022-10-13T06:17:26.066Z,101903.75
2022-10-13T06:19:53.288Z,101902.31
2022-10-13T06:22:23.232Z,101901.47
2022-10-13T06:24:50.514Z,101899.97
2022-10-13T06:27:20.096Z,101892.47
2022-10-13T06:29:47.197Z,101898.75
2022-10-13T06:32:14.412Z,101898.97
2022-10-13T06:34:41.596Z,101891.09
2022-10-13T06:37:09.295Z,101899.31
2022-10-13T06:39:36.417Z,101895.44
2022-10-13T06:42:03.901Z,101900.13
2022-10-13T06:44:32.486Z,101889.84
2022-10-13T06:47:01.036Z,101893.22
2022-10-13T06:49:28.044Z,101885.50
2022-10-13T06:51:56.872Z,101884.63
2022-10-13T06:54:23.958Z,101883.63
2022-10-13T06:56:51.449Z,101874.38
2022-10-13T06:59:18.554Z,101877.00
2022-10-13T07:01:45.621Z,101885.59
2022-10-13T07:04:12.862Z,101885.00
2022-10-13T07:06:40.026Z,101878.91
2022-10-13T07:09:10.517Z,101878.56
2022-10-13T07:11:37.518Z,101871.91
2022-10-13T07:14:04.761Z,101865.41
2022-10-13T07:16:34.941Z,101874.09
2022-10-13T07:19:02.087Z,101863.16
2022-10-13T07:21:31.917Z,101870.34
2022-10-13T07:26:34.109Z,101866.06
2022-10-13T07:29:02.136Z,101867.47
2022-10-13T07:31:29.610Z,101857.88
2022-10-13T07:34:01.569Z,101852.47
2022-10-13T07:36:32.680Z,101849.59
2022-10-13T07:39:04.299Z,101850.34
2022-10-13T07:41:31.400Z,101849.41
2022-10-13T07:43:59.041Z,101848.78
2022-10-13T07:46:26.327Z,101842.06
2022-10-13T07:48:58.921Z,101834.41
2022-10-13T07:51:26.068Z,101833.63
2022-10-13T07:53:55.570Z,101825.22
2022-10-13T07:56:22.634Z,101823.75
2022-10-13T07:58:49.757Z,101822.22
2022-10-13T08:01:18.101Z,101821.88
2022-10-13T08:03:49.835Z,101805.75
2022-10-13T08:06:18.427Z,101809.84
2022-10-13T08:08:45.850Z,101815.97
2022-10-13T08:11:16.952Z,101815.25
2022-10-13T08:13:52.073Z,101817.03
2022-10-13T08:16:19.888Z,101817.03
2022-10-13T08:18:50.641Z,101812.88
2022-10-13T08:24:11.048Z,101801.16
2022-10-13T08:26:44.274Z,101800.59
2022-10-13T08:29:28.190Z,101805.19
2022-10-13T08:31:56.312Z,101804.47
2022-10-13T08:34:27.204Z,101809.06
2022-10-13T08:36:56.468Z,101808.38
2022-10-13T08:39:24.787Z,101796.22
2022-10-13T08:41:52.591Z,101801.84
2022-10-13T08:47:43.900Z,101806.66
2022-10-13T08:50:23.309Z,101793.88
2022-10-13T08:53:00.812Z,101804.59
2022-10-13T08:55:42.211Z,101804.38
2022-10-13T08:58:28.524Z,101799.47
2022-10-13T09:01:20.726Z,101785.44
2022-10-13T09:04:08.341Z,101788.28
2022-10-13T09:06:51.667Z,101775.88
2022-10-13T09:09:19.967Z,101791.59
2022-10-13T09:11:50.790Z,101783.31
2022-10-13T09:14:27.391Z,101793.47
2022-10-13T09:16:58.075Z,101792.78
2022-10-13T09:19:34.215Z,101791.22
2022-10-13T09:22:28.585Z,101791.00
2022-10-13T09:25:07.871Z,101772.19
2022-10-13T09:28:00.041Z,101787.75
2022-10-13T09:30:40.715Z,101783.06
2022-10-13T09:33:13.667Z,101783.97
2022-10-13T09:36:08.115Z,101784.53
2022-10-13T09:38:35.372Z,101776.72
2022-10-13T09:41:10.284Z,101774.19
2022-10-13T09:44:00.820Z,101781.63
2022-10-13T09:46:38.397Z,101771.97
2022-10-13T09:49:34.825Z,101762.06
2022-10-13T09:52:11.992Z,101760.66
2022-10-13T09:54:56.303Z,101779.00
2022-10-13T09:57:35.993Z,101761.94
2022-10-13T10:00:15.295Z,101760.28
2022-10-13T10:02:57.122Z,101756.06
2022-10-13T10:05:50.851Z,101758.03
2022-10-13T10:09:08.631Z,101761.38
2022-10-13T10:11:41.580Z,101766.28
2022-10-13T10:14:38.805Z,101758.97
2022-10-13T10:17:43.928Z,101747.47
2022-10-13T10:20:45.658Z,101739.97
2022-10-13T10:23:47.082Z,101732.06
2022-10-13T10:26:41.197Z,101720.75
2022-10-13T10:29:14.991Z,101712.03
2022-10-13T10:31:54.056Z,101715.50
2022-10-13T10:35:14.138Z,101705.03
2022-10-13T10:38:15.357Z,101707.13
2022-10-13T10:41:08.417Z,101711.31
2022-10-13T10:44:10.969Z,101698.34
2022-10-13T10:46:50.828Z,101690.13
2022-10-13T10:49:30.450Z,101692.75
2022-10-13T10:51:59.778Z,101691.16
2022-10-13T10:55:07.897Z,101681.22
2022-10-13T10:57:59.420Z,101677.47
2022-10-13T11:03:24.598Z,101663.09
2022-10-13T11:05:57.626Z,101680.41
2022-10-13T11:08:47.049Z,101647.66
2022-10-13T11:11:25.032Z,101668.88
2022-10-13T11:13:57.662Z,101660.03
2022-10-13T11:16:34.290Z,101645.97
2022-10-13T11:19:25.377Z,101678.56
2022-10-13T11:21:55.422Z,101649.31
2022-10-13T11:24:34.918Z,101641.78
2022-10-13T11:27:07.991Z,101652.06
2022-10-13T11:29:44.406Z,101655.84
2022-10-13T11:32:35.728Z,101641.75
2022-10-13T11:35:05.825Z,101634.44
2022-10-13T11:38:07.757Z,101642.19
2022-10-13T11:40:59.911Z,101622.31
2022-10-13T11:44:00.359Z,101621.34
2022-10-13T11:46:34.876Z,101622.69
2022-10-13T11:49:46.164Z,101621.41
2022-10-13T11:52:47.923Z,101612.81
2022-10-13T11:55:53.738Z,101614.88
2022-10-13T11:58:33.136Z,101611.09
2022-10-13T12:01:06.384Z,101599.63
2022-10-13T12:03:42.057Z,101602.41
2022-10-13T12:06:36.955Z,101593.88
2022-10-13T12:09:21.669Z,101602.69
2022-10-13T12:12:14.261Z,101599.28
2022-10-13T12:14:48.170Z,101596.78
2022-10-13T12:17:27.583Z,101589.50
2022-10-13T12:19:58.641Z,101591.78
2022-10-13T12:22:27.744Z,101590.81
2022-10-13T12:25:05.515Z,101583.56
2022-10-13T12:27:48.145Z,101570.59
2022-10-13T12:30:28.107Z,101575.38
2022-10-13T12:32:59.623Z,101578.22
2022-10-13T12:35:33.914Z,101571.31
2022-10-13T12:38:14.366Z,101573.41
2022-10-13T12:40:41.443Z,101569.84
2022-10-13T12:43:12.882Z,101569.56
2022-10-13T12:45:44.594Z,101565.78
2022-10-13T12:48:33.098Z,101563.34
2022-10-13T12:51:22.578Z,101566.56
2022-10-13T12:53:49.610Z,101561.69
2022-10-13T12:56:31.768Z,101566.84
2022-10-13T12:59:01.796Z,101564.63
2022-10-13T13:01:35.991Z,101555.00
2022-10-13T13:04:22.411Z,101569.34
2022-10-13T13:07:03.172Z,101559.09
2022-10-13T13:09:36.884Z,101556.16
2022-10-13T13:12:13.240Z,101558.16
2022-10-13T13:14:48.612Z,101558.19
2022-10-13T13:17:38.543Z,101548.44
2022-10-13T13:20:37.981Z,101553.56
2022-10-13T13:23:05.799Z,101544.91
2022-10-13T13:25:32.782Z,101548.66
2022-10-13T13:28:03.391Z,101535.22
2022-10-13T13:30:30.547Z,101541.91
2022-10-13T13:32:57.641Z,101536.97
2022-10-13T13:35:24.593Z,101533.00
2022-10-13T13:37:53.190Z,101529.75
2022-10-13T13:40:24.387Z,101533.69
2022-10-13T13:42:51.695Z,101529.09
2022-10-13T13:45:26.958Z,101526.31
2022-10-13T13:47:59.547Z,101530.00
2022-10-13T13:50:38.290Z,101525.31
2022-10-13T13:53:05.936Z,101519.63
2022-10-13T13:55:33.099Z,101525.97
2022-10-13T13:58:00.099Z,101518.53
2022-10-13T14:00:27.398Z,101512.66
2022-10-13T14:02:55.096Z,101517.06
2022-10-13T14:05:22.199Z,101516.81
2022-10-13T14:07:49.340Z,101513.03
2022-10-13T14:10:16.508Z,101517.53
2022-10-13T14:12:43.760Z,101514.06
2022-10-13T14:15:11.218Z,101515.97
2022-10-13T14:17:43.327Z,101511.25
2022-10-13T14:20:10.600Z,101502.41
2022-10-13T14:22:39.333Z,101508.13
2022-10-13T14:25:07.644Z,101504.47
2022-10-13T14:27:35.651Z,101502.88
2022-10-13T14:30:04.740Z,101500.78
2022-10-13T14:32:31.797Z,101492.09
2022-10-13T14:34:58.850Z,101500.00
2022-10-13T14:37:30.314Z,101491.72
2022-10-13T14:39:59.896Z,101492.16
2022-10-13T14:42:26.911Z,101484.13
2022-10-13T14:44:53.916Z,101484.31
2022-10-13T14:47:21.326Z,101480.00
2022-10-13T14:49:48.663Z,101482.69
2022-10-13T14:52:15.584Z,101478.16
2022-10-13T14:54:44.971Z,101480.44
2022-10-13T14:57:15.961Z,101482.25
2022-10-13T14:59:46.059Z,101485.81
2022-10-13T15:02:13.944Z,101480.13
2022-10-13T15:04:40.979Z,101479.16
2022-10-13T15:07:08.369Z,101473.06
2022-10-13T15:09:52.439Z,101472.31
2022-10-13T15:12:25.020Z,101474.66
2022-10-13T15:14:52.029Z,101478.94
2022-10-13T15:17:19.090Z,101474.09
2022-10-13T15:19:46.235Z,101481.59
2022-10-13T15:22:13.303Z,101473.75
2022-10-13T15:24:40.207Z,101473.25
2022-10-13T15:27:07.486Z,101467.38
2022-10-13T15:29:34.474Z,101459.06
2022-10-13T15:32:12.298Z,101465.03
2022-10-13T15:34:42.269Z,101464.09
2022-10-13T15:37:11.743Z,101471.41
2022-10-13T15:39:39.093Z,101458.84
2022-10-13T15:42:06.168Z,101468.53
2022-10-13T15:44:51.293Z,101465.47
2022-10-13T15:47:20.242Z,101467.16
2022-10-13T15:49:47.237Z,101476.16
2022-10-13T15:52:16.824Z,101471.53
2022-10-13T15:54:43.929Z,101469.28
2022-10-13T15:57:10.913Z,101467.25
2022-10-13T15:59:37.942Z,101456.25
2022-10-13T16:02:04.993Z,101459.56
2022-10-13T16:04:37.130Z,101463.75
2022-10-13T16:07:04.539Z,101463.03
2022-10-13T16:09:31.728Z,101458.84
2022-10-13T16:11:58.878Z,101473.34
2022-10-13T16:14:25.914Z,101465.16
2022-10-13T16:16:52.925Z,101461.72
2022-10-13T16:19:20.431Z,101457.47
2022-10-13T16:21:47.479Z,101444.88
2022-10-13T16:24:14.505Z,101458.81
2022-10-13T16:26:41.592Z,101453.84
2022-10-13T16:29:08.557Z,101448.84
2022-10-13T16:31:35.704Z,101449.72
2022-10-13T16:34:03.501Z,101454.25
2022-10-13T16:36:30.629Z,101455.53
2022-10-13T16:38:58.717Z,101452.88
2022-10-13T16:41:25.884Z,101457.50
2022-10-13T16:43:53.019Z,101465.47
2022-10-13T16:46:20.679Z,101459.03
2022-10-13T16:48:48.603Z,101464.16
2022-10-13T16:51:25.848Z,101450.44
2022-10-13T16:54:03.618Z,101463.00
2022-10-13T16:56:31.612Z,101463.88
2022-10-13T16:59:05.338Z,101460.09
2022-10-13T17:01:34.660Z,101465.56
2022-10-13T17:04:03.016Z,101461.50
2022-10-13T17:06:30.451Z,101455.63
2022-10-13T17:08:59.733Z,101457.56
2022-10-13T17:11:30.114Z,101451.31
2022-10-13T17:13:58.790Z,101440.50
2022-10-13T17:16:27.036Z,101438.81
2022-10-13T17:18:55.207Z,101435.72
2022-10-13T17:21:22.679Z,101440.81
2022-10-13T17:23:50.801Z,101444.22
2022-10-13T17:26:19.132Z,101440.81
2022-10-13T17:28:46.598Z,101436.91
2022-10-13T17:31:21.160Z,101442.34
2022-10-13T17:33:50.146Z,101443.63
2022-10-13T17:36:27.567Z,101428.34
2022-10-13T17:38:59.719Z,101434.75
2022-10-13T17:41:26.697Z,101430.56
2022-10-13T17:43:53.755Z,101429.44
2022-10-13T17:46:39.880Z,101427.50
2022-10-13T17:49:10.663Z,101434.81
2022-10-13T17:51:38.760Z,101434.19
2022-10-13T17:54:06.841Z,101420.34
2022-10-13T17:56:40.825Z,101427.63
2022-10-13T17:59:09.827Z,101426.69
2022-10-13T18:01:37.487Z,101426.38
2022-10-13T18:04:11.284Z,101418.63
2022-10-13T18:06:45.332Z,101408.00
2022-10-13T18:09:26.102Z,101401.41
2022-10-13T18:11:54.509Z,101409.00
2022-10-13T18:14:24.312Z,101414.47
2022-10-13T18:16:52.624Z,101413.88
2022-10-13T18:19:21.345Z,101421.00
2022-10-13T18:21:49.077Z,101423.44
2022-10-13T18:24:16.212Z,101422.28
2022-10-13T18:26:43.197Z,101415.63
2022-10-13T18:29:14.027Z,101417.00
2022-10-13T18:31:42.230Z,101414.63
2022-10-13T18:34:17.089Z,101412.69
2022-10-13T18:36:54.950Z,101416.13
2022-10-13T18:39:27.717Z,101413.75
2022-10-13T18:41:57.720Z,101412.63
2022-10-13T18:44:25.238Z,101415.97
2022-10-13T18:46:53.888Z,101406.59
2022-10-13T18:49:31.060Z,101408.63
2022-10-13T18:51:59.876Z,101412.81
2022-10-13T18:54:28.017Z,101407.31
2022-10-13T18:56:55.100Z,101413.25
2022-10-13T18:59:23.502Z,101405.53
2022-10-13T19:01:52.739Z,101404.19
2022-10-13T19:04:21.532Z,101401.78
2022-10-13T19:06:48.568Z,101399.88
2022-10-13T19:09:17.520Z,101398.91
2022-10-13T19:11:44.932Z,101397.66
2022-10-13T19:14:13.981Z,101399.78
2022-10-13T19:16:44.117Z,101396.84
2022-10-13T19:19:13.914Z,101408.09
2022-10-13T19:21:41.878Z,101403.75
2022-10-13T19:24:09.961Z,101405.97
2022-10-13T19:26:37.782Z,101398.38
2022-10-13T19:29:12.622Z,101397.28
2022-10-13T19:31:41.828Z,101396.16
2022-10-13T19:34:10.936Z,101393.09
2022-10-13T19:36:45.457Z,101399.69
2022-10-13T19:39:24.366Z,101387.06
2022-10-13T19:41:54.516Z,101371.94
2022-10-13T19:44:23.803Z,101383.03
2022-10-13T19:46:52.459Z,101391.53
2022-10-13T19:49:21.991Z,101387.88
2022-10-13T19:51:49.965Z,101385.94
2022-10-13T19:54:20.720Z,101391.25
2022-10-13T19:56:49.107Z,101393.25
2022-10-13T19:59:17.800Z,101397.97
2022-10-13T20:01:44.943Z,101398.25
2022-10-13T20:04:12.411Z,101392.75
2022-10-13T20:06:39.524Z,101393.13
2022-10-13T20:09:07.007Z,101391.41
2022-10-13T20:11:34.064Z,101397.34
2022-10-13T20:14:01.093Z,101399.09
2022-10-13T20:16:28.285Z,101387.06
2022-10-13T20:18:58.843Z,101390.25
2022-10-13T20:21:28.082Z,101392.00
2022-10-13T20:23:55.841Z,101385.84
2022-10-13T20:26:23.647Z,101381.91
2022-10-13T20:28:52.675Z,101381.72
2022-10-13T20:31:22.311Z,101383.59
2022-10-13T20:33:54.254Z,101374.47
2022-10-13T20:36:21.327Z,101384.13
2022-10-13T20:38:49.360Z,101384.44
2022-10-13T20:41:23.714Z,101383.09
2022-10-13T20:43:52.469Z,101383.34
2022-10-13T20:46:21.777Z,101388.06
2022-10-13T20:51:37.162Z,101367.75
2022-10-13T20:54:04.388Z,101372.97
2022-10-13T20:56:31.636Z,101359.13
2022-10-13T20:59:04.439Z,101365.28
2022-10-13T21:01:31.585Z,101358.94
2022-10-13T21:03:58.864Z,101360.59
2022-10-13T21:06:27.132Z,101366.13
2022-10-13T21:08:54.707Z,101368.00
2022-10-13T21:11:23.718Z,101360.41
2022-10-13T21:13:52.097Z,101364.25
2022-10-13T21:16:27.343Z,101360.59
2022-10-13T21:18:57.540Z,101358.22
2022-10-13T21:21:28.984Z,101351.72
2022-10-13T21:23:59.754Z,101356.00
2022-10-13T21:26:29.337Z,101354.84
2022-10-13T21:29:00.551Z,101349.31
2022-10-13T21:31:28.729Z,101351.97
2022-10-13T21:33:56.416Z,101346.56
2022-10-13T21:36:30.498Z,101353.19
2022-10-13T21:39:04.516Z,101359.78
2022-10-13T21:41:31.840Z,101354.44
2022-10-13T21:43:59.199Z,101358.31
2022-10-13T21:46:29.346Z,101349.16
2022-10-13T21:48:59.347Z,101352.13
2022-10-13T21:51:36.153Z,101351.03
2022-10-13T21:54:07.967Z,101344.00
2022-10-13T21:56:35.854Z,101339.16
2022-10-13T21:59:03.733Z,101342.97
2022-10-13T22:01:34.384Z,101346.28
2022-10-13T22:04:02.508Z,101337.91
2022-10-13T22:06:32.235Z,101337.63
2022-10-13T22:09:02.365Z,101336.91
2022-10-13T22:11:32.555Z,101336.56
2022-10-13T22:14:00.369Z,101328.03
2022-10-13T22:16:38.066Z,101330.97
2022-10-13T22:19:06.717Z,101330.03
2022-10-13T22:21:38.669Z,101332.50
2022-10-13T22:24:09.641Z,101332.44
2022-10-13T22:26:39.057Z,101333.81
2022-10-13T22:29:07.972Z,101330.94
2022-10-13T22:31:36.083Z,101319.00
2022-10-13T22:34:04.477Z,101327.22
2022-10-13T22:36:31.907Z,101325.81
2022-10-13T22:39:02.894Z,101326.22
2022-10-13T22:41:31.227Z,101326.94
2022-10-13T22:43:59.546Z,101324.31
2022-10-13T22:46:31.995Z,101315.06
2022-10-13T22:48:59.775Z,101319.66
2022-10-13T22:51:29.733Z,101311.16
2022-10-13T22:53:57.050Z,101315.31
2022-10-13T22:56:28.164Z,101312.72
2022-10-13T22:59:07.549Z,101317.38
2022-10-13T23:01:35.503Z,101310.75
2022-10-13T23:04:02.613Z,101310.31
2022-10-13T23:06:32.774Z,101314.59
2022-10-13T23:09:06.201Z,101312.09
2022-10-13T23:11:34.035Z,101308.22
2022-10-13T23:14:02.019Z,101305.47
2022-10-13T23:16:30.514Z,101316.38
2022-10-13T23:18:57.696Z,101311.41
2022-10-13T23:21:28.389Z,101312.47
2022-10-13T23:24:02.350Z,101300.50
2022-10-13T23:26:30.435Z,101310.47
2022-10-13T23:28:58.650Z,101305.25
2022-10-13T23:31:29.603Z,101299.78
2022-10-13T23:33:57.312Z,101298.59
2022-10-13T23:36:30.351Z,101303.88
2022-10-13T23:39:04.603Z,101298.78
2022-10-13T23:41:32.273Z,101290.66
2022-10-13T23:43:59.426Z,101290.38
2022-10-13T23:46:26.634Z,101286.09
2022-10-13T23:48:53.691Z,101281.34
2022-10-13T23:51:22.199Z,101289.69
2022-10-13T23:53:50.075Z,101287.56
2022-10-13T23:56:17.706Z,101283.75
2022-10-13T23:58:45.180Z,101283.41
